Time;durP1;ratioP1;P1;durP2;ratioP2;P2;SDS_P1;SDS_P2;PMS_P1;PMS_P2;Temp;Humidity;BMP_temperature;BMP_pressure;BME280_temperature;BME280_humidity;BME280_pressure;Samples;Min_cycle;Max_cycle;Signal;HPM_P1;HPM_P2
2023/06/05 04:05:54;;;;;;;1.60;1.50;;;12.30;99.90;;;;;;5269011;23;20552;-61
2023/06/05 04:08:19;;;;;;;3.70;2.20;;;12.40;99.90;;;;;;4997313;28;20187;-63
2023/06/05 04:10:45;;;;;;;3.47;1.83;;;12.40;99.90;;;;;;4997371;28;20663;-62
2023/06/05 04:13:11;;;;;;;2.93;1.70;;;12.50;99.90;;;;;;4997303;28;20180;-62
2023/06/05 04:15:37;;;;;;;1.93;1.77;;;12.60;99.90;;;;;;4997284;28;20424;-62
2023/06/05 04:18:03;;;;;;;2.00;1.80;;;12.70;99.90;;;;;;4997344;28;20169;-61
2023/06/05 04:20:28;;;;;;;3.57;2.30;;;12.80;99.90;;;;;;4997274;28;20178;-63
2023/06/05 04:22:54;;;;;;;1.80;1.70;;;13.00;99.90;;;;;;4997019;28;20416;-63
2023/06/05 04:25:20;;;;;;;2.00;1.90;;;13.30;99.90;;;;;;4996680;28;20186;-63
2023/06/05 04:27:49;;;;;;;1.10;1.10;;;13.60;99.90;;;;;;4997153;28;20170;-63
2023/06/05 04:30:15;;;;;;;1.50;1.40;;;13.90;99.90;;;;;;4996888;28;20162;-63
2023/06/05 04:32:41;;;;;;;1.67;1.57;;;14.30;99.90;;;;;;4997016;28;20406;-63
2023/06/05 04:35:08;;;;;;;3.00;2.73;;;14.60;99.90;;;;;;4995663;28;20287;-65
2023/06/05 04:37:35;;;;;;;2.77;2.03;;;14.90;99.90;;;;;;4995627;28;20452;-62
2023/06/05 04:40:05;;;;;;;1.97;1.87;;;15.20;99.30;;;;;;4997026;28;20753;-63
2023/06/05 04:42:31;;;;;;;1.97;1.80;;;15.30;98.30;;;;;;4996818;28;20398;-62
2023/06/05 04:45:00;;;;;;;2.60;2.03;;;15.40;97.60;;;;;;4996583;28;20821;-63
2023/06/05 04:47:26;;;;;;;1.93;1.83;;;15.50;97.30;;;;;;4996643;28;20455;-63
2023/06/05 04:49:53;;;;;;;2.13;2.03;;;15.60;96.50;;;;;;4996718;28;20424;-62
2023/06/05 04:52:23;;;;;;;2.43;1.67;;;15.60;96.40;;;;;;4996722;28;20893;-63
2023/06/05 04:54:48;;;;;;;2.63;1.93;;;15.50;96.30;;;;;;4996198;28;20863;-62
2023/06/05 04:57:16;;;;;;;1.87;1.77;;;15.40;96.80;;;;;;4996583;28;20458;-63
2023/06/05 04:59:42;;;;;;;2.57;2.27;;;15.40;97.10;;;;;;4996611;28;20685;-62
2023/06/05 05:02:08;;;;;;;2.50;1.73;;;15.40;97.10;;;;;;4996523;28;20411;-62
2023/06/05 05:04:34;;;;;;;6.70;2.07;;;15.40;97.10;;;;;;4996000;28;20422;-63
2023/06/05 05:07:01;;;;;;;2.33;2.10;;;15.50;97.30;;;;;;4996241;28;20497;-62
2023/06/05 05:09:33;;;;;;;2.43;2.23;;;15.60;97.30;;;;;;4996239;28;20172;-63
2023/06/05 05:11:59;;;;;;;2.43;2.23;;;15.70;97.00;;;;;;4996295;28;20764;-63
2023/06/05 05:14:28;;;;;;;1.90;1.70;;;15.80;96.40;;;;;;4995830;28;20795;-63
2023/06/05 05:16:57;;;;;;;2.20;1.93;;;15.80;95.10;;;;;;4995406;28;20442;-63
2023/06/05 05:19:22;;;;;;;1.60;1.50;;;15.90;95.20;;;;;;4996237;28;20412;-63
2023/06/05 05:21:48;;;;;;;1.77;1.67;;;16.00;95.80;;;;;;4996207;28;20469;-63
2023/06/05 05:24:14;;;;;;;2.47;2.00;;;16.00;95.70;;;;;;4995680;28;20196;-63
2023/06/05 05:26:40;;;;;;;1.93;1.73;;;16.10;95.80;;;;;;4996331;28;20211;-63
2023/06/05 05:29:08;;;;;;;2.73;2.53;;;16.20;96.00;;;;;;4995875;28;20438;-63
2023/06/05 05:31:34;;;;;;;2.30;2.10;;;16.30;95.60;;;;;;4995874;28;20188;-63
2023/06/05 05:34:00;;;;;;;2.53;2.33;;;16.40;94.30;;;;;;4995570;28;20445;-63
2023/06/05 05:36:26;;;;;;;2.27;1.90;;;16.50;93.80;;;;;;4995562;28;20486;-63
2023/06/05 05:38:53;;;;;;;1.60;1.53;;;16.80;93.40;;;;;;4995758;28;20219;-63
2023/06/05 05:41:19;;;;;;;1.90;1.80;;;17.10;92.30;;;;;;4994354;28;20417;-63
2023/06/05 05:43:44;;;;;;;2.00;1.90;;;17.50;92.40;;;;;;4995405;28;20549;-64
2023/06/05 05:46:10;;;;;;;2.10;2.00;;;17.60;91.80;;;;;;4995484;28;20196;-63
2023/06/05 05:48:36;;;;;;;2.03;1.93;;;17.70;91.40;;;;;;4995246;28;20181;-63
2023/06/05 05:51:02;;;;;;;3.23;3.03;;;17.70;92.00;;;;;;4994092;28;20762;-62
2023/06/05 05:53:28;;;;;;;2.73;2.50;;;17.90;92.10;;;;;;4995102;28;20418;-63
2023/06/05 05:55:54;;;;;;;2.10;2.00;;;18.10;91.50;;;;;;4995445;28;20451;-63
2023/06/05 05:58:20;;;;;;;3.30;1.93;;;18.30;91.10;;;;;;4995186;28;20711;-62
2023/06/05 06:00:47;;;;;;;1.73;1.63;;;18.40;91.00;;;;;;4995209;28;20415;-64
2023/06/05 06:03:14;;;;;;;2.60;2.40;;;18.30;90.40;;;;;;4994796;28;20168;-63
2023/06/05 06:05:40;;;;;;;2.77;2.47;;;18.40;90.30;;;;;;4994979;28;20533;-63
2023/06/05 06:08:06;;;;;;;2.00;1.90;;;18.50;90.00;;;;;;4995158;28;20496;-62
2023/06/05 06:10:32;;;;;;;1.43;1.33;;;18.50;87.50;;;;;;4995261;28;20479;-63
2023/06/05 06:12:57;;;;;;;1.90;1.80;;;18.50;85.70;;;;;;4994880;28;20433;-63
2023/06/05 06:15:23;;;;;;;1.43;1.33;;;18.50;85.20;;;;;;4994778;28;20851;-63
2023/06/05 06:17:49;;;;;;;3.03;2.30;;;18.40;84.70;;;;;;4993625;28;20673;-62
2023/06/05 06:20:15;;;;;;;2.23;1.90;;;18.40;86.20;;;;;;4994913;28;20251;-63
2023/06/05 06:22:42;;;;;;;1.90;1.67;;;18.40;86.90;;;;;;4994915;28;20168;-62
2023/06/05 06:25:10;;;;;;;2.60;2.40;;;18.40;87.70;;;;;;4994693;28;20510;-62
2023/06/05 06:27:36;;;;;;;1.53;1.43;;;18.60;86.10;;;;;;4994857;28;20413;-63
2023/06/05 06:30:03;;;;;;;2.40;2.30;;;18.90;84.40;;;;;;4994569;28;20817;-62
2023/06/05 06:32:29;;;;;;;2.03;1.93;;;19.10;84.10;;;;;;4994616;28;20464;-65
2023/06/05 06:34:55;;;;;;;3.80;1.40;;;19.30;83.40;;;;;;4994394;28;20513;-65
2023/06/05 06:37:21;;;;;;;1.90;1.80;;;19.30;82.20;;;;;;4994486;28;20699;-64
2023/06/05 06:39:47;;;;;;;1.70;1.37;;;19.40;82.10;;;;;;4994760;28;20419;-63
2023/06/05 06:42:14;;;;;;;1.47;1.37;;;19.50;82.30;;;;;;4994736;28;20417;-64
2023/06/05 06:44:39;;;;;;;1.80;1.70;;;19.60;80.50;;;;;;4994109;28;20438;-63
2023/06/05 06:47:05;;;;;;;1.90;1.80;;;19.80;79.50;;;;;;4994640;28;20411;-63
2023/06/05 06:49:31;;;;;;;1.90;1.80;;;19.80;81.30;;;;;;4994773;28;20183;-63
2023/06/05 06:51:57;;;;;;;1.90;1.70;;;19.80;79.40;;;;;;4994494;28;20171;-64
2023/06/05 06:54:22;;;;;;;1.30;1.30;;;19.80;77.50;;;;;;4993705;28;20441;-64
2023/06/05 06:56:49;;;;;;;10.50;2.50;;;19.80;78.10;;;;;;4994097;28;20202;-63
2023/06/05 06:59:16;;;;;;;2.60;2.40;;;19.80;78.60;;;;;;4994100;28;20282;-64
2023/06/05 07:01:48;;;;;;;1.87;1.77;;;19.90;78.70;;;;;;4994176;28;20957;-64
2023/06/05 07:04:20;;;;;;;1.77;1.63;;;19.80;79.60;;;;;;4992582;28;20557;-63
2023/06/05 07:06:49;;;;;;;2.60;1.70;;;19.90;80.60;;;;;;4993866;28;20525;-64
2023/06/05 07:09:15;;;;;;;2.23;2.10;;;20.10;78.90;;;;;;4994161;28;20422;-64
2023/06/05 07:11:41;;;;;;;1.63;1.53;;;20.20;77.10;;;;;;4994150;28;20460;-63
2023/06/05 07:14:07;;;;;;;1.80;1.70;;;20.30;77.90;;;;;;4993836;28;20737;-63
2023/06/05 07:16:33;;;;;;;2.67;2.47;;;20.40;77.50;;;;;;4993981;28;20212;-64
2023/06/05 07:18:59;;;;;;;2.10;2.00;;;20.50;78.10;;;;;;4993030;28;20423;-63
2023/06/05 07:21:25;;;;;;;2.20;2.10;;;20.60;77.80;;;;;;4994136;28;20952;-64
2023/06/05 07:23:53;;;;;;;2.03;1.93;;;20.80;77.30;;;;;;4993472;28;20205;-63
2023/06/05 07:26:18;;;;;;;2.43;2.23;;;21.00;77.50;;;;;;4993776;28;20417;-62
2023/06/05 07:28:46;;;;;;;2.70;1.70;;;21.50;77.00;;;;;;4994122;28;20435;-63
2023/06/05 07:31:12;;;;;;;2.03;1.93;;;22.10;75.30;;;;;;4993870;28;20192;-62
2023/06/05 07:33:38;;;;;;;2.37;2.17;;;22.80;73.70;;;;;;4993196;28;20426;-64
2023/06/05 07:36:04;;;;;;;2.20;2.00;;;23.60;73.60;;;;;;4993700;28;20903;-63
2023/06/05 07:38:30;;;;;;;3.00;1.87;;;24.50;72.00;;;;;;4994144;28;20581;-65
2023/06/05 07:40:58;;;;;;;2.40;2.20;;;25.60;69.00;;;;;;4995896;28;20406;-63
2023/06/05 07:43:24;;;;;;;2.70;2.20;;;26.80;67.30;;;;;;4997281;28;20254;-63
2023/06/05 07:45:50;;;;;;;2.30;2.20;;;27.90;63.50;;;;;;4997603;28;20790;-64
2023/06/05 07:48:15;;;;;;;3.27;3.07;;;28.90;61.40;;;;;;4997339;28;20427;-64
2023/06/05 07:50:41;;;;;;;2.67;2.47;;;29.80;58.90;;;;;;4997639;28;20259;-65
2023/06/05 07:53:06;;;;;;;2.50;2.40;;;30.50;57.70;;;;;;4997445;28;20672;-63
2023/06/05 07:55:32;;;;;;;2.83;2.63;;;31.10;56.70;;;;;;4997507;28;20653;-64
2023/06/05 07:57:59;;;;;;;2.60;2.40;;;31.70;55.80;;;;;;4997476;28;20274;-63
2023/06/05 08:00:26;;;;;;;2.77;2.57;;;32.20;55.70;;;;;;4997697;28;20293;-64
2023/06/05 08:02:53;;;;;;;2.87;2.67;;;32.80;53.90;;;;;;4996082;28;20849;-63
2023/06/05 08:05:19;;;;;;;2.37;2.27;;;33.00;52.70;;;;;;4994362;28;20501;-64
2023/06/05 08:07:45;;;;;;;2.73;2.40;;;33.50;53.20;;;;;;4997539;28;20747;-64
2023/06/05 08:10:12;;;;;;;2.73;2.53;;;33.60;52.40;;;;;;4997268;28;20432;-64
2023/06/05 08:12:37;;;;;;;3.30;3.00;;;33.60;52.60;;;;;;4997294;28;20395;-64
2023/06/05 08:15:04;;;;;;;2.77;2.63;;;33.80;52.60;;;;;;4996544;28;20970;-64
2023/06/05 08:17:29;;;;;;;2.43;2.27;;;34.20;53.60;;;;;;4997217;28;20202;-64
2023/06/05 08:19:55;;;;;;;2.60;2.50;;;34.40;52.60;;;;;;4997343;28;20419;-65
2023/06/05 08:22:22;;;;;;;2.00;1.90;;;34.70;52.30;;;;;;4997404;28;20566;-65
2023/06/05 08:24:49;;;;;;;2.97;2.83;;;34.70;51.60;;;;;;4996535;28;20230;-63
2023/06/05 08:27:16;;;;;;;2.40;2.30;;;35.40;50.90;;;;;;4997009;28;20415;-63
2023/06/05 08:29:41;;;;;;;3.13;2.93;;;36.00;51.20;;;;;;4997181;28;20795;-63
2023/06/05 08:32:07;;;;;;;3.23;3.03;;;36.20;49.40;;;;;;4996645;28;20427;-63
2023/06/05 08:34:33;;;;;;;3.20;3.00;;;36.20;49.20;;;;;;4996502;28;20203;-65
2023/06/05 08:36:58;;;;;;;3.63;3.43;;;36.20;48.90;;;;;;4996902;28;20239;-63
2023/06/05 08:39:29;;;;;;;3.20;3.00;;;36.50;48.60;;;;;;4996420;28;20210;-63
2023/06/05 08:41:59;;;;;;;3.10;2.90;;;36.90;48.40;;;;;;4996840;28;20597;-63
2023/06/05 08:44:29;;;;;;;3.00;2.80;;;36.90;47.80;;;;;;4996307;28;20435;-65
2023/06/05 08:47:00;;;;;;;2.70;2.50;;;37.00;48.20;;;;;;4996621;28;20419;-65
2023/06/05 08:49:30;;;;;;;2.80;2.60;;;37.30;48.40;;;;;;4996793;28;20415;-62
2023/06/05 08:52:05;;;;;;;3.00;2.80;;;37.50;48.10;;;;;;4995503;28;20881;-63
2023/06/05 08:54:41;;;;;;;3.40;3.20;;;37.40;48.50;;;;;;4995713;28;20450;-62
2023/06/05 08:57:07;;;;;;;3.30;3.10;;;37.30;48.20;;;;;;4995268;28;20557;-63
2023/06/05 08:59:33;;;;;;;2.90;2.73;;;37.30;47.70;;;;;;4996613;28;20408;-63
2023/06/05 09:02:00;;;;;;;3.10;3.00;;;37.00;47.60;;;;;;4996566;28;20403;-64
2023/06/05 09:04:29;;;;;;;2.83;2.63;;;37.00;47.90;;;;;;4995964;28;20210;-63
2023/06/05 09:06:57;;;;;;;3.20;3.00;;;36.70;48.10;;;;;;4996126;28;20561;-63
2023/06/05 09:09:23;;;;;;;3.77;3.30;;;36.90;48.40;;;;;;4996064;28;20504;-63
2023/06/05 09:12:04;;;;;;;3.20;3.00;;;36.90;48.20;;;;;;4996424;28;20502;-63
2023/06/05 09:14:32;;;;;;;3.00;2.80;;;37.00;48.30;;;;;;4995774;28;20229;-63
2023/06/05 09:17:00;;;;;;;3.40;3.20;;;37.10;47.60;;;;;;4996015;28;20505;-63
2023/06/05 09:19:39;;;;;;;3.30;3.10;;;37.20;48.50;;;;;;4995698;28;20430;-62
2023/06/05 09:22:08;;;;;;;3.10;2.93;;;37.30;48.00;;;;;;4987654;28;20468;-63
2023/06/05 09:24:34;;;;;;;3.80;3.60;;;36.80;48.50;;;;;;4995590;28;20816;-63
2023/06/05 09:27:11;;;;;;;3.30;3.10;;;36.60;48.30;;;;;;4995936;28;20482;-63
2023/06/05 09:29:43;;;;;;;3.57;3.37;;;36.10;48.60;;;;;;4995775;28;20187;-62
2023/06/05 09:32:20;;;;;;;3.43;3.23;;;35.50;49.30;;;;;;4995856;28;20437;-63
2023/06/05 09:34:54;;;;;;;3.60;3.30;;;35.50;49.10;;;;;;4995363;28;20925;-63
2023/06/05 09:37:33;;;;;;;3.33;3.13;;;35.40;48.60;;;;;;4995987;28;20745;-63
2023/06/05 09:39:59;;;;;;;3.77;3.50;;;34.90;49.50;;;;;;4994446;28;20447;-63
2023/06/05 09:42:32;;;;;;;3.47;3.27;;;34.80;49.60;;;;;;4995950;28;20554;-62
2023/06/05 09:44:59;;;;;;;3.20;3.00;;;34.60;49.40;;;;;;4979263;28;20208;-63
2023/06/05 09:47:25;;;;;;;3.13;2.93;;;34.40;49.30;;;;;;4995074;28;20466;-62
2023/06/05 09:49:51;;;;;;;2.60;2.50;;;34.30;49.20;;;;;;4995651;28;20959;-63
2023/06/05 09:52:16;;;;;;;3.27;2.87;;;34.30;49.50;;;;;;4995327;28;20182;-63
2023/06/05 09:54:46;;;;;;;3.53;3.23;;;34.60;49.80;;;;;;4994958;28;20210;-62
2023/06/05 09:57:13;;;;;;;3.30;3.10;;;34.60;48.40;;;;;;4995369;28;20187;-63
2023/06/05 09:59:53;;;;;;;2.87;2.67;;;34.40;48.50;;;;;;4995259;28;20427;-62
2023/06/05 10:02:20;;;;;;;2.57;2.47;;;33.70;47.10;;;;;;4994064;28;20929;-62
2023/06/05 10:04:48;;;;;;;2.70;2.50;;;32.70;48.00;;;;;;4994152;28;20431;-65
2023/06/05 10:07:15;;;;;;;2.30;2.20;;;31.90;47.20;;;;;;4994884;28;20463;-63
2023/06/05 10:09:42;;;;;;;2.43;2.23;;;31.90;46.90;;;;;;4995064;28;20390;-62
2023/06/05 10:12:08;;;;;;;3.77;3.57;;;32.10;47.50;;;;;;4994920;28;20883;-63
2023/06/05 10:14:41;;;;;;;2.63;2.43;;;32.40;47.80;;;;;;4994481;28;20513;-62
2023/06/05 10:17:06;;;;;;;2.93;2.70;;;32.70;47.10;;;;;;4995028;28;20658;-64
2023/06/05 10:19:33;;;;;;;2.30;2.20;;;33.40;47.00;;;;;;4994886;28;20413;-64
2023/06/05 10:21:58;;;;;;;2.30;2.20;;;33.70;45.30;;;;;;4994985;28;20255;-64
2023/06/05 10:24:42;;;;;;;3.00;2.80;;;33.90;44.60;;;;;;4994384;28;20950;-63
2023/06/05 10:27:11;;;;;;;2.60;2.40;;;34.10;44.60;;;;;;4994588;28;20204;-62
2023/06/05 10:30:25;;;;;;;2.67;2.47;;;33.90;44.30;;;;;;4994730;28;20385;-64
2023/06/05 10:32:59;;;;;;;2.87;2.67;;;33.40;44.50;;;;;;4995005;28;20385;-63
2023/06/05 10:35:34;;;;;;;3.37;2.60;;;33.50;45.20;;;;;;4994176;28;20421;-64
2023/06/05 10:38:17;;;;;;;2.60;2.40;;;33.60;45.60;;;;;;4993292;28;20411;-64
2023/06/05 10:40:43;;;;;;;2.20;2.10;;;33.60;44.80;;;;;;4994716;28;20444;-64
2023/06/05 10:43:30;;;;;;;2.23;1.97;;;33.50;44.50;;;;;;4994009;28;20425;-63
2023/06/05 10:45:59;;;;;;;2.30;2.20;;;33.00;45.80;;;;;;4994426;28;20434;-64
2023/06/05 10:49:03;;;;;;;2.57;2.20;;;33.10;45.50;;;;;;4994428;28;20385;-65
2023/06/05 10:51:37;;;;;;;2.30;2.20;;;33.20;45.20;;;;;;4994495;28;20385;-64
2023/06/05 10:54:03;;;;;;;2.30;2.20;;;33.30;45.40;;;;;;4994008;28;20478;-62
2023/06/05 10:56:52;;;;;;;2.23;2.10;;;32.80;45.50;;;;;;4994003;28;20419;-64
2023/06/05 10:59:20;;;;;;;2.70;2.50;;;32.60;45.50;;;;;;4994450;28;20396;-64
2023/06/05 11:02:06;;;;;;;2.70;2.50;;;32.80;45.60;;;;;;4994053;28;20479;-65
2023/06/05 11:04:47;;;;;;;2.87;2.67;;;32.80;45.50;;;;;;4993676;28;20437;-63
2023/06/05 11:07:22;;;;;;;2.83;2.60;;;32.80;45.60;;;;;;4993890;28;20444;-64
2023/06/05 11:10:03;;;;;;;2.40;2.20;;;32.30;44.70;;;;;;4994465;28;20411;-64
2023/06/05 11:12:35;;;;;;;2.43;2.10;;;31.30;45.80;;;;;;4993989;28;20496;-63
2023/06/05 11:15:01;;;;;;;2.10;2.00;;;30.30;46.50;;;;;;4992758;28;20430;-64
2023/06/05 11:17:35;;;;;;;2.67;2.47;;;29.50;47.50;;;;;;4994156;28;20740;-62
2023/06/05 11:20:07;;;;;;;2.53;2.33;;;28.50;49.20;;;;;;4990913;28;20818;-64
2023/06/05 11:22:33;;;;;;;2.27;2.13;;;28.10;51.50;;;;;;4993806;28;21015;-63
2023/06/05 11:25:16;;;;;;;2.03;1.93;;;27.90;49.90;;;;;;4993562;28;20473;-64
2023/06/05 11:28:01;;;;;;;2.97;2.70;;;27.60;50.90;;;;;;4994013;28;20203;-63
2023/06/05 11:30:32;;;;;;;2.83;2.63;;;27.40;50.30;;;;;;4994120;28;20467;-64
2023/06/05 11:33:19;;;;;;;2.03;1.83;;;27.10;51.30;;;;;;4993676;28;20427;-64
2023/06/05 11:35:46;;;;;;;2.10;2.00;;;26.90;51.40;;;;;;4993877;28;20426;-65
2023/06/05 11:38:16;;;;;;;4.43;2.30;;;26.90;52.20;;;;;;4993973;28;20745;-63
2023/06/05 11:40:44;;;;;;;2.57;2.30;;;26.90;52.50;;;;;;4993597;28;20423;-63
2023/06/05 11:43:14;;;;;;;2.40;2.17;;;27.00;53.10;;;;;;4993550;28;20434;-64
2023/06/05 11:45:42;;;;;;;6.20;2.60;;;27.00;51.70;;;;;;4993780;28;20466;-62
2023/06/05 11:48:12;;;;;;;2.50;2.30;;;26.80;51.20;;;;;;4993525;28;20463;-64
2023/06/05 11:50:39;;;;;;;3.00;2.70;;;26.70;51.70;;;;;;4993924;28;20403;-64
2023/06/05 11:53:11;;;;;;;2.63;2.43;;;26.70;52.20;;;;;;4993401;28;20701;-64
2023/06/05 11:58:22;;;;;;;2.70;2.50;;;26.70;51.80;;;;;;4993841;28;20413;-64
2023/06/05 12:00:47;;;;;;;2.30;2.20;;;26.60;51.30;;;;;;4993691;28;20412;-64
2023/06/05 12:03:23;;;;;;;2.30;2.10;;;26.70;51.30;;;;;;4993043;28;20760;-63
2023/06/05 12:05:49;;;;;;;2.47;2.30;;;26.70;51.50;;;;;;4993489;28;20215;-63
2023/06/05 12:08:27;;;;;;;2.40;2.27;;;26.70;51.70;;;;;;4993655;28;20396;-64
2023/06/05 12:10:53;;;;;;;2.13;1.97;;;26.80;51.80;;;;;;4993536;28;20183;-62
2023/06/05 12:13:19;;;;;;;2.53;2.30;;;26.90;51.40;;;;;;4992905;28;20399;-63
2023/06/05 12:15:57;;;;;;;2.60;2.40;;;26.80;51.00;;;;;;4993384;28;20484;-64
2023/06/05 12:18:33;;;;;;;2.43;2.23;;;26.70;50.50;;;;;;4993120;28;20422;-64
2023/06/05 12:21:02;;;;;;;2.03;1.93;;;26.40;51.40;;;;;;4993162;28;20443;-62
2023/06/05 12:23:32;;;;;;;2.03;1.90;;;26.40;51.30;;;;;;4993210;28;20497;-63
2023/06/05 12:26:03;;;;;;;2.63;2.43;;;26.30;51.90;;;;;;4993650;28;20430;-64
2023/06/05 12:28:29;;;;;;;3.80;2.33;;;26.40;53.30;;;;;;4996768;28;20445;-65
2023/06/05 12:30:55;;;;;;;2.37;2.13;;;26.40;51.30;;;;;;4996844;28;20490;-64
2023/06/05 12:33:24;;;;;;;2.23;2.10;;;26.50;51.30;;;;;;4996696;28;21285;-65
2023/06/05 12:36:08;;;;;;;2.80;2.20;;;26.60;50.80;;;;;;4996844;28;20700;-65
2023/06/05 12:38:38;;;;;;;2.40;2.20;;;26.80;51.60;;;;;;4997031;28;20384;-65
2023/06/05 12:41:06;;;;;;;2.57;2.37;;;26.90;50.80;;;;;;4996682;28;20462;-63
2023/06/05 12:43:32;;;;;;;1.90;1.80;;;27.00;52.20;;;;;;4996248;28;20455;-63
2023/06/05 12:45:58;;;;;;;2.33;2.13;;;27.10;50.80;;;;;;4996568;28;20477;-64
2023/06/05 12:48:23;;;;;;;2.30;2.00;;;27.10;49.70;;;;;;4996996;28;20913;-64
2023/06/05 12:50:50;;;;;;;3.10;2.30;;;27.00;49.70;;;;;;4996550;28;20219;-64
2023/06/05 12:53:15;;;;;;;2.50;2.40;;;26.90;50.60;;;;;;4996029;28;20220;-64
2023/06/05 12:55:41;;;;;;;2.57;2.37;;;26.90;50.10;;;;;;4996198;28;20414;-64
2023/06/05 12:58:07;;;;;;;2.13;2.00;;;27.10;50.90;;;;;;4996039;28;20259;-64
2023/06/05 13:00:33;;;;;;;2.37;2.27;;;27.20;49.80;;;;;;4996114;28;20180;-64
2023/06/05 13:02:59;;;;;;;2.47;2.30;;;27.30;50.90;;;;;;4996256;28;20171;-63
2023/06/05 13:05:25;;;;;;;2.50;2.40;;;27.40;49.80;;;;;;4994491;28;20454;-63
2023/06/05 13:07:54;;;;;;;2.87;2.67;;;27.20;49.50;;;;;;4995913;28;20701;-64
2023/06/05 13:10:20;;;;;;;3.30;3.00;;;26.90;50.10;;;;;;4996046;28;20166;-65
2023/06/05 13:12:46;;;;;;;2.90;2.70;;;26.60;50.50;;;;;;4995785;28;20439;-65
2023/06/05 13:15:11;;;;;;;2.13;2.03;;;26.50;51.80;;;;;;4995904;28;20287;-65
2023/06/05 13:17:37;;;;;;;2.67;2.47;;;26.50;50.80;;;;;;4996076;28;20627;-64
2023/06/05 13:20:14;;;;;;;2.20;2.00;;;26.60;50.10;;;;;;4996110;28;20191;-64
2023/06/05 13:22:40;;;;;;;3.40;2.67;;;26.60;51.50;;;;;;4995861;28;20407;-64
2023/06/05 13:25:08;;;;;;;2.70;2.50;;;26.70;51.30;;;;;;4995602;28;20971;-64
2023/06/05 13:27:33;;;;;;;2.57;2.30;;;26.70;50.90;;;;;;4995621;28;20463;-63
2023/06/05 13:29:59;;;;;;;2.57;2.37;;;26.60;51.20;;;;;;4995716;28;20411;-65
2023/06/05 13:32:25;;;;;;;2.40;2.17;;;26.50;52.90;;;;;;4995928;28;20167;-64
2023/06/05 13:34:51;;;;;;;2.17;2.03;;;26.50;51.90;;;;;;4995367;28;20556;-64
2023/06/05 13:37:16;;;;;;;2.57;2.40;;;26.60;51.30;;;;;;4994438;28;20258;-63
2023/06/05 13:39:42;;;;;;;2.67;2.47;;;26.60;51.70;;;;;;4995154;28;20885;-64
2023/06/05 13:42:08;;;;;;;2.17;2.07;;;26.60;50.80;;;;;;4995658;28;20180;-63
2023/06/05 13:44:34;;;;;;;2.83;2.67;;;26.60;50.80;;;;;;4994897;28;20206;-64
2023/06/05 13:47:02;;;;;;;2.93;2.67;;;26.70;50.90;;;;;;4995147;28;20450;-64
2023/06/05 13:49:29;;;;;;;2.50;2.30;;;26.80;51.70;;;;;;4995683;28;20175;-64
2023/06/05 13:51:55;;;;;;;2.57;2.30;;;26.90;50.80;;;;;;4995352;28;20897;-64
2023/06/05 13:54:20;;;;;;;2.30;2.20;;;27.00;50.70;;;;;;4995123;28;20435;-64
2023/06/05 13:56:46;;;;;;;3.23;2.93;;;27.10;51.30;;;;;;4995157;28;20194;-65
2023/06/05 13:59:11;;;;;;;2.30;2.20;;;27.00;51.70;;;;;;4995534;28;20667;-62
2023/06/05 14:01:37;;;;;;;2.90;2.70;;;27.10;51.30;;;;;;4995284;28;20184;-63
2023/06/05 14:04:03;;;;;;;2.87;2.60;;;27.00;51.20;;;;;;4994705;28;20189;-63
2023/06/05 14:06:28;;;;;;;2.50;2.40;;;26.90;51.00;;;;;;4994747;28;20295;-65
2023/06/05 14:08:54;;;;;;;2.20;2.00;;;26.70;51.10;;;;;;4995003;28;20200;-63
2023/06/05 14:11:19;;;;;;;2.60;2.40;;;26.70;51.50;;;;;;4994922;28;20165;-63
2023/06/05 14:13:45;;;;;;;2.47;2.30;;;26.70;52.20;;;;;;4994651;28;20169;-62
2023/06/05 14:16:11;;;;;;;2.43;2.30;;;26.70;51.50;;;;;;4994665;28;20552;-64
2023/06/05 14:18:37;;;;;;;2.33;2.13;;;26.80;52.20;;;;;;4994940;28;20183;-64
2023/06/05 14:21:03;;;;;;;2.90;2.70;;;26.80;51.50;;;;;;4995096;28;20427;-64
2023/06/05 14:23:28;;;;;;;2.57;2.37;;;26.80;52.20;;;;;;4994520;28;20645;-64
2023/06/05 14:25:54;;;;;;;2.30;2.10;;;26.80;51.50;;;;;;4994809;28;20562;-62
2023/06/05 14:28:19;;;;;;;2.00;1.90;;;26.70;51.60;;;;;;4994802;28;20188;-65
2023/06/05 14:30:49;;;;;;;2.53;2.33;;;26.60;51.60;;;;;;4994545;28;20175;-64
2023/06/05 14:33:16;;;;;;;2.87;2.17;;;26.50;52.00;;;;;;4992935;28;20175;-64
2023/06/05 14:35:42;;;;;;;2.30;2.20;;;26.40;52.10;;;;;;4994596;28;20489;-64
2023/06/05 14:38:12;;;;;;;3.43;3.00;;;26.20;52.00;;;;;;4994241;28;20419;-64
2023/06/05 14:40:41;;;;;;;3.77;2.70;;;26.10;51.90;;;;;;4994680;28;20176;-65
2023/06/05 14:43:07;;;;;;;2.60;2.40;;;26.10;52.30;;;;;;4992897;28;20509;-64
2023/06/05 14:45:32;;;;;;;2.27;2.07;;;26.20;52.00;;;;;;4994270;28;20501;-64
2023/06/05 14:47:58;;;;;;;2.33;2.00;;;26.20;51.70;;;;;;4994005;28;20769;-64
2023/06/05 14:50:24;;;;;;;2.20;2.10;;;26.20;50.70;;;;;;4993595;28;20175;-64
2023/06/05 14:52:49;;;;;;;2.53;2.37;;;26.10;50.60;;;;;;4994357;28;20278;-64
2023/06/05 14:55:15;;;;;;;2.00;1.90;;;26.00;50.70;;;;;;4994037;28;20191;-64
2023/06/05 14:57:41;;;;;;;2.10;1.90;;;26.00;51.30;;;;;;4994372;28;20283;-64
2023/06/05 15:00:07;;;;;;;1.60;1.60;;;26.00;51.40;;;;;;4994397;28;20183;-64
2023/06/05 15:02:34;;;;;;;2.30;2.13;;;26.10;51.70;;;;;;4993773;28;20187;-63
2023/06/05 15:05:00;;;;;;;2.20;2.10;;;26.00;51.90;;;;;;4993510;28;20457;-64
2023/06/05 15:07:38;;;;;;;2.47;2.27;;;26.00;51.40;;;;;;4992610;28;20980;-62
2023/06/05 15:10:05;;;;;;;2.00;1.90;;;26.00;51.40;;;;;;4992918;28;20177;-63
2023/06/05 15:12:31;;;;;;;2.40;2.20;;;26.00;51.30;;;;;;4994155;28;20897;-63
2023/06/05 15:14:57;;;;;;;1.93;1.83;;;25.90;51.10;;;;;;4992224;28;20804;-64
2023/06/05 15:17:22;;;;;;;2.40;2.20;;;25.80;51.50;;;;;;4993703;28;20434;-65
2023/06/05 15:19:48;;;;;;;2.37;2.23;;;25.70;52.10;;;;;;4992757;28;20180;-63
2023/06/05 15:22:13;;;;;;;1.90;1.80;;;25.70;52.00;;;;;;4994067;28;20234;-63
2023/06/05 15:24:39;;;;;;;2.47;2.10;;;25.70;52.50;;;;;;4993190;28;20285;-65
2023/06/05 15:27:05;;;;;;;2.63;2.43;;;25.80;52.10;;;;;;4994106;28;20748;-64
2023/06/05 15:29:30;;;;;;;2.40;2.20;;;25.80;51.90;;;;;;4993075;28;20179;-64
2023/06/05 15:31:56;;;;;;;1.97;1.87;;;25.70;51.60;;;;;;4994121;28;20171;-64
2023/06/05 15:34:22;;;;;;;1.63;1.53;;;25.70;51.80;;;;;;4993779;28;20683;-64
2023/06/05 15:36:47;;;;;;;2.13;1.90;;;25.60;51.70;;;;;;4993826;28;20207;-64
2023/06/05 15:39:13;;;;;;;1.97;1.87;;;25.60;51.50;;;;;;4993692;28;20561;-63
2023/06/05 15:41:39;;;;;;;2.33;2.13;;;25.60;51.70;;;;;;4994008;28;20183;-63
2023/06/05 15:44:07;;;;;;;2.27;2.07;;;25.60;51.50;;;;;;4993493;28;20184;-62
2023/06/05 15:46:33;;;;;;;3.03;2.20;;;25.60;51.80;;;;;;4993639;28;20583;-63
2023/06/05 15:48:58;;;;;;;2.40;2.23;;;25.60;52.00;;;;;;4994696;28;20485;-63
2023/06/05 15:51:27;;;;;;;2.40;2.20;;;25.60;52.60;;;;;;4993857;28;20176;-62
2023/06/05 15:53:52;;;;;;;2.73;2.00;;;25.60;52.30;;;;;;4993053;28;20184;-63
2023/06/05 15:56:18;;;;;;;2.63;2.47;;;25.70;52.30;;;;;;4993936;28;20889;-62
2023/06/05 15:58:44;;;;;;;1.90;1.80;;;25.70;51.50;;;;;;4993784;28;20241;-62
2023/06/05 16:01:09;;;;;;;2.20;2.10;;;25.70;51.80;;;;;;4994467;28;20628;-62
2023/06/05 16:03:35;;;;;;;2.20;2.10;;;25.70;51.50;;;;;;4997475;28;20179;-65
2023/06/05 16:06:01;;;;;;;2.47;2.27;;;25.60;52.00;;;;;;4997340;28;20308;-62
2023/06/05 16:08:26;;;;;;;1.93;1.83;;;25.50;52.30;;;;;;4997541;28;20215;-62
2023/06/05 16:10:52;;;;;;;2.10;1.90;;;25.40;52.50;;;;;;4998949;28;20176;-63
2023/06/05 16:13:19;;;;;;;2.20;2.00;;;25.20;52.50;;;;;;5001605;28;20601;-64
2023/06/05 16:15:45;;;;;;;2.27;1.90;;;25.20;52.60;;;;;;5003189;28;20227;-66
2023/06/05 16:18:11;;;;;;;2.17;2.00;;;25.10;53.30;;;;;;5000981;28;20931;-64
2023/06/05 16:20:36;;;;;;;2.07;1.97;;;25.20;52.60;;;;;;5002631;28;20186;-64
2023/06/05 16:23:02;;;;;;;1.80;1.70;;;25.20;51.60;;;;;;5002650;28;20175;-64
2023/06/05 16:25:27;;;;;;;2.30;2.10;;;25.20;51.60;;;;;;5002665;28;20199;-63
2023/06/05 16:27:53;;;;;;;2.50;1.80;;;25.10;51.50;;;;;;4996733;28;20196;-63
2023/06/05 16:30:19;;;;;;;2.90;2.10;;;25.10;51.70;;;;;;4997301;28;20172;-64
2023/06/05 16:32:44;;;;;;;2.40;2.20;;;25.10;52.00;;;;;;4997059;28;20178;-63
2023/06/05 16:35:10;;;;;;;1.50;1.40;;;25.10;52.30;;;;;;4996836;28;20222;-63
2023/06/05 16:37:36;;;;;;;2.27;2.17;;;25.10;52.40;;;;;;4995843;28;20801;-63
2023/06/05 16:40:01;;;;;;;2.53;2.33;;;25.10;52.70;;;;;;4996427;28;20175;-63
2023/06/05 16:42:27;;;;;;;2.20;2.10;;;25.10;52.60;;;;;;4995526;28;20180;-63
2023/06/05 16:44:53;;;;;;;1.70;1.60;;;25.10;52.20;;;;;;4996509;28;20740;-62
2023/06/05 16:47:19;;;;;;;4.50;1.97;;;25.10;51.90;;;;;;4996874;28;20219;-63
2023/06/05 16:49:45;;;;;;;2.20;2.00;;;25.10;52.00;;;;;;4997009;28;20750;-63
2023/06/05 16:52:10;;;;;;;1.83;1.73;;;25.10;52.70;;;;;;4996778;28;20180;-63
2023/06/05 16:54:36;;;;;;;2.13;2.03;;;25.00;52.40;;;;;;4995825;28;20210;-63
2023/06/05 16:57:03;;;;;;;1.73;1.63;;;24.90;52.50;;;;;;4996669;28;20187;-62
2023/06/05 16:59:29;;;;;;;1.90;1.80;;;24.80;52.50;;;;;;4996249;28;20270;-62